Arickaree, Colorado
Current Conditions -  °F | °C
As of 3:55 PM on Tuesday 21 Oct 2014 (Local Time) from KLIC Reporting Station
Clear Clear  
Wind Chill: 21°   Ceiling: Unl
Heat Index: 21°   Visibility: 10mi
Dew Point:   Wind: 20mph
Humidity: 30%   Direction: 170°S
Pressure: 29.96"   Gusts: 25mph
Location:  39.6673°N, 103.47°W
Report Text: KLIC 212155Z AUTO 17017G22KT 10SM CLR 21/03 A2996 RMK AO2 SLP098 T02110028
Loading
Personal Weather Stations






























Interactive Weather Map
Tropical Storm Tracking
New forecast layout! Learn more

10-Day Weather Forecast

Advertisements
Track Severe Weather on mobile